createdAt,value
2022-10-15T00:02:53.214Z,21.92
2022-10-15T00:05:54.798Z,19.58
2022-10-15T00:08:56.371Z,19.48
2022-10-15T00:11:58.083Z,19.00
2022-10-15T00:14:59.653Z,17.60
2022-10-15T00:18:01.344Z,21.15
2022-10-15T00:21:06.616Z,19.02
2022-10-15T00:24:08.662Z,17.90
2022-10-15T00:27:10.318Z,18.38
2022-10-15T00:30:12.472Z,18.92
2022-10-15T00:33:13.991Z,19.65
2022-10-15T00:36:20.511Z,19.70
2022-10-15T00:39:22.289Z,18.98
2022-10-15T00:42:26.566Z,19.77
2022-10-15T00:45:28.252Z,20.75
2022-10-15T00:48:31.860Z,22.83
2022-10-15T00:51:39.838Z,24.25
2022-10-15T00:54:46.814Z,20.48
2022-10-15T00:57:50.068Z,22.98
2022-10-15T01:00:51.823Z,23.92
2022-10-15T01:03:55.487Z,18.88
2022-10-15T01:06:57.232Z,20.25
2022-10-15T01:09:59.015Z,22.20
2022-10-15T01:13:06.597Z,22.38
2022-10-15T01:16:17.343Z,20.75
2022-10-15T01:22:47.474Z,19.25
2022-10-15T01:25:57.014Z,23.08
2022-10-15T01:29:19.567Z,21.27
2022-10-15T01:32:30.355Z,21.25
2022-10-15T01:36:18.432Z,21.17
2022-10-15T01:39:29.049Z,22.38
2022-10-15T01:42:43.993Z,21.45
2022-10-15T01:45:52.280Z,22.33
2022-10-15T01:48:56.500Z,25.48
2022-10-15T01:51:59.910Z,23.52
2022-10-15T01:55:04.151Z,24.20
2022-10-15T01:58:06.934Z,26.25
2022-10-15T02:01:08.946Z,25.25
2022-10-15T02:04:23.488Z,21.60
2022-10-15T02:07:40.718Z,28.50
2022-10-15T02:10:56.116Z,27.60
2022-10-15T02:14:05.722Z,24.58
2022-10-15T02:17:10.207Z,25.63
2022-10-15T02:20:19.625Z,25.35
2022-10-15T02:23:42.284Z,25.20
2022-10-15T02:26:44.655Z,27.65
2022-10-15T02:29:48.868Z,29.25
2022-10-15T02:32:55.363Z,26.85
2022-10-15T02:35:58.796Z,27.77
2022-10-15T02:39:03.810Z,29.90
2022-10-15T02:42:06.725Z,28.90
2022-10-15T02:45:09.182Z,29.42
2022-10-15T02:48:10.774Z,28.65
2022-10-15T02:51:12.716Z,30.10
2022-10-15T02:54:14.282Z,27.52
2022-10-15T02:57:15.908Z,30.27
2022-10-15T03:00:18.447Z,31.05
2022-10-15T03:03:19.978Z,35.30
2022-10-15T03:06:21.799Z,31.75
2022-10-15T03:09:23.296Z,33.00
2022-10-15T03:12:25.912Z,35.28
2022-10-15T03:15:27.604Z,31.38
2022-10-15T03:18:29.266Z,33.25
2022-10-15T03:21:31.089Z,31.80
2022-10-15T03:24:32.678Z,30.55
2022-10-15T03:27:34.455Z,32.35
2022-10-15T03:30:36.152Z,30.80
2022-10-15T03:33:37.663Z,32.30
2022-10-15T03:36:39.208Z,31.63
2022-10-15T03:39:40.806Z,36.65
2022-10-15T03:42:42.366Z,30.45
2022-10-15T03:45:43.918Z,29.33
2022-10-15T03:48:49.733Z,35.55
2022-10-15T03:51:51.262Z,32.55
2022-10-15T03:54:52.816Z,29.58
2022-10-15T03:57:54.346Z,35.33
2022-10-15T04:00:55.932Z,31.98
2022-10-15T04:03:57.554Z,31.83
2022-10-15T04:06:59.136Z,32.92
2022-10-15T04:10:00.675Z,37.13
2022-10-15T04:13:02.207Z,34.72
2022-10-15T04:16:06.978Z,32.50
2022-10-15T04:19:11.043Z,35.30
2022-10-15T04:22:12.967Z,38.00
2022-10-15T04:25:14.685Z,34.70
2022-10-15T04:28:19.218Z,31.95
2022-10-15T04:31:20.770Z,33.83
2022-10-15T04:34:22.508Z,29.33
2022-10-15T04:37:24.391Z,31.08
2022-10-15T04:40:26.388Z,28.45
2022-10-15T04:43:28.510Z,28.15
2022-10-15T04:46:30.080Z,30.92
2022-10-15T04:49:31.660Z,28.60
2022-10-15T04:52:34.930Z,32.53
2022-10-15T04:55:36.916Z,29.30
2022-10-15T04:58:39.747Z,27.17
2022-10-15T05:01:41.256Z,28.05
2022-10-15T05:04:42.794Z,27.42
2022-10-15T05:07:44.361Z,33.10
2022-10-15T05:10:45.952Z,30.10
2022-10-15T05:13:47.971Z,27.90
2022-10-15T05:16:50.921Z,30.95
2022-10-15T05:19:52.446Z,27.38
2022-10-15T05:22:53.982Z,31.08
2022-10-15T05:25:58.776Z,27.77
2022-10-15T05:29:00.896Z,29.42
2022-10-15T05:32:02.574Z,30.77
2022-10-15T05:35:04.631Z,30.40
2022-10-15T05:38:06.171Z,31.48
2022-10-15T05:41:07.769Z,31.17
2022-10-15T05:44:09.388Z,32.47
2022-10-15T05:47:12.306Z,31.90
2022-10-15T05:50:14.444Z,29.95
2022-10-15T05:53:16.056Z,29.08
2022-10-15T05:56:17.590Z,27.55
2022-10-15T05:59:19.143Z,25.70
2022-10-15T06:02:20.908Z,27.20
2022-10-15T06:05:22.607Z,29.00
2022-10-15T06:08:24.301Z,27.83
2022-10-15T06:11:25.843Z,28.63
2022-10-15T06:14:27.421Z,30.17
2022-10-15T06:17:28.926Z,30.75
2022-10-15T06:20:30.531Z,25.83
2022-10-15T06:23:32.520Z,27.33
2022-10-15T06:26:34.083Z,29.42
2022-10-15T06:29:35.701Z,29.50
2022-10-15T06:32:37.254Z,29.58
2022-10-15T06:35:40.407Z,28.92
2022-10-15T06:38:44.170Z,27.48
2022-10-15T06:41:45.788Z,26.52
2022-10-15T06:44:47.310Z,27.08
2022-10-15T06:47:48.876Z,28.08
2022-10-15T06:50:50.584Z,26.02
2022-10-15T06:53:52.154Z,25.38
2022-10-15T06:56:53.648Z,23.80
2022-10-15T06:59:55.186Z,26.73
2022-10-15T07:02:56.771Z,23.48
2022-10-15T07:06:03.598Z,26.33
2022-10-15T07:09:05.547Z,28.25
2022-10-15T07:12:07.237Z,26.10
2022-10-15T07:15:09.114Z,28.38
2022-10-15T07:18:10.634Z,28.02
2022-10-15T07:21:12.164Z,26.23
2022-10-15T07:24:13.750Z,29.75
2022-10-15T07:27:19.275Z,26.80
2022-10-15T07:30:22.608Z,26.35
2022-10-15T07:33:24.155Z,29.30
2022-10-15T07:36:26.178Z,29.10
2022-10-15T07:39:28.649Z,30.30
2022-10-15T07:42:30.174Z,28.85
2022-10-15T07:45:31.997Z,27.88
2022-10-15T07:48:33.567Z,27.23
2022-10-15T07:51:35.107Z,26.55
2022-10-15T07:54:36.845Z,26.67
2022-10-15T07:57:38.411Z,28.88
2022-10-15T08:00:40.017Z,29.98
2022-10-15T08:03:41.546Z,31.17
2022-10-15T08:06:43.245Z,30.65
2022-10-15T08:12:51.268Z,30.85
2022-10-15T08:15:56.246Z,30.77
2022-10-15T08:19:00.913Z,30.52
2022-10-15T08:22:02.897Z,26.35
2022-10-15T08:25:04.923Z,25.55
2022-10-15T08:28:06.594Z,24.92
2022-10-15T08:31:08.299Z,22.42
2022-10-15T08:34:09.853Z,23.02
2022-10-15T08:37:11.451Z,20.60
2022-10-15T08:40:16.861Z,18.90
2022-10-15T08:43:24.972Z,18.17
2022-10-15T08:46:47.957Z,16.00
2022-10-15T08:49:56.387Z,14.48
2022-10-15T08:52:58.943Z,12.77
2022-10-15T08:56:05.719Z,11.32
2022-10-15T08:59:42.902Z,10.55
2022-10-15T09:03:10.816Z,7.88
2022-10-15T09:06:35.280Z,7.57
2022-10-15T09:09:39.787Z,7.57
2022-10-15T09:13:13.879Z,6.32
2022-10-15T09:16:36.106Z,5.05
2022-10-15T09:19:37.918Z,4.37
2022-10-15T09:22:39.537Z,3.28
2022-10-15T09:25:45.468Z,3.47
2022-10-15T09:29:33.009Z,2.60
2022-10-15T09:32:43.518Z,2.42
2022-10-15T09:36:18.759Z,2.30
2022-10-15T09:39:20.238Z,2.15
2022-10-15T09:42:27.866Z,1.80
2022-10-15T09:45:29.903Z,1.50
2022-10-15T09:48:37.589Z,1.70
2022-10-15T09:51:57.719Z,1.10
2022-10-15T09:55:34.873Z,0.90
2022-10-15T09:58:53.649Z,1.00
2022-10-15T10:02:01.855Z,1.02
2022-10-15T10:05:28.361Z,1.00
2022-10-15T10:08:55.963Z,1.08
2022-10-15T10:12:03.284Z,0.85
2022-10-15T10:15:36.717Z,0.90
2022-10-15T10:18:38.712Z,0.80
2022-10-15T10:21:42.749Z,0.77
2022-10-15T10:24:45.546Z,1.05
2022-10-15T10:27:47.090Z,0.90
2022-10-15T10:30:57.762Z,0.77
2022-10-15T10:34:03.431Z,0.90
2022-10-15T10:37:06.622Z,0.80
2022-10-15T10:40:33.890Z,0.75
2022-10-15T10:43:40.829Z,0.90
2022-10-15T10:46:42.383Z,1.00
2022-10-15T10:49:49.819Z,1.00
2022-10-15T10:52:51.365Z,0.93
2022-10-15T10:55:55.261Z,0.95
2022-10-15T10:59:15.391Z,1.10
2022-10-15T11:02:17.255Z,0.85
2022-10-15T11:05:31.220Z,0.90
2022-10-15T11:09:03.387Z,1.08
2022-10-15T11:12:39.027Z,0.80
2022-10-15T11:16:03.855Z,1.00
2022-10-15T11:23:05.555Z,1.02
2022-10-15T11:26:37.007Z,1.05
2022-10-15T11:29:51.766Z,0.98
2022-10-15T11:33:16.583Z,1.00
2022-10-15T11:36:40.584Z,0.90
2022-10-15T11:40:01.108Z,1.08
2022-10-15T11:46:21.003Z,1.30
2022-10-15T11:49:32.954Z,1.40
2022-10-15T11:52:50.075Z,1.30
2022-10-15T11:56:03.036Z,1.40
2022-10-15T11:59:20.177Z,1.20
2022-10-15T12:02:33.073Z,1.55
2022-10-15T12:05:55.085Z,1.27
2022-10-15T12:08:57.918Z,1.52
2022-10-15T12:12:32.669Z,1.20
2022-10-15T12:16:05.713Z,1.20
2022-10-15T12:19:18.606Z,1.50
2022-10-15T12:22:59.869Z,1.20
2022-10-15T12:26:01.470Z,1.30
2022-10-15T12:29:06.427Z,1.38
2022-10-15T12:32:24.682Z,1.27
2022-10-15T12:35:35.139Z,1.48
2022-10-15T12:38:43.122Z,1.25
2022-10-15T12:41:47.952Z,1.60
2022-10-15T12:44:50.865Z,1.40
2022-10-15T12:48:30.773Z,1.20
2022-10-15T12:51:32.521Z,1.02
2022-10-15T12:55:20.257Z,1.40
2022-10-15T12:58:36.748Z,1.30
2022-10-15T13:01:44.334Z,2.00
2022-10-15T13:04:46.757Z,2.60
2022-10-15T13:07:48.343Z,1.30
2022-10-15T13:10:56.575Z,3.17
2022-10-15T13:14:09.264Z,1.60
2022-10-15T13:17:21.592Z,1.88
2022-10-15T13:20:32.356Z,1.15
2022-10-15T13:23:35.512Z,1.42
2022-10-15T13:26:37.060Z,1.52
2022-10-15T13:29:38.633Z,1.65
2022-10-15T13:32:47.845Z,1.30
2022-10-15T13:35:49.478Z,1.15
2022-10-15T13:39:00.095Z,0.93
2022-10-15T13:42:16.607Z,1.00
2022-10-15T13:45:18.516Z,1.20
2022-10-15T13:48:22.898Z,1.10
2022-10-15T13:51:34.270Z,1.10
2022-10-15T13:54:36.167Z,1.23
2022-10-15T13:57:37.779Z,1.15
2022-10-15T14:00:39.839Z,1.33
2022-10-15T14:03:55.449Z,1.10
2022-10-15T14:10:03.598Z,1.00
2022-10-15T14:13:05.138Z,1.10
2022-10-15T14:16:15.765Z,1.02
2022-10-15T14:19:26.838Z,0.90
2022-10-15T14:22:28.852Z,0.90
2022-10-15T14:25:30.391Z,0.90
2022-10-15T14:28:34.449Z,0.88
2022-10-15T14:31:35.981Z,1.20
2022-10-15T14:34:40.109Z,0.70
2022-10-15T14:37:42.525Z,0.80
2022-10-15T14:41:06.286Z,1.08
2022-10-15T14:44:12.067Z,1.30
2022-10-15T14:47:32.615Z,3.60
2022-10-15T14:53:43.848Z,1.70
2022-10-15T14:56:45.923Z,1.70
2022-10-15T14:59:47.484Z,2.13
2022-10-15T15:02:49.318Z,2.05
2022-10-15T15:05:53.662Z,2.00
2022-10-15T15:08:55.599Z,2.55
2022-10-15T15:11:57.304Z,3.35
2022-10-15T15:14:59.170Z,3.67
2022-10-15T15:18:00.724Z,3.15
2022-10-15T15:21:05.488Z,3.08
2022-10-15T15:24:08.271Z,3.75
2022-10-15T15:27:23.648Z,3.97
2022-10-15T15:30:28.115Z,3.10
2022-10-15T15:33:29.711Z,3.08
2022-10-15T15:36:31.295Z,3.50
2022-10-15T15:39:32.821Z,2.30
2022-10-15T15:42:34.365Z,2.13
2022-10-15T15:45:35.914Z,1.80
2022-10-15T15:48:38.012Z,2.60
2022-10-15T15:51:41.510Z,2.60
2022-10-15T15:54:43.379Z,3.60
2022-10-15T15:57:45.286Z,3.60
2022-10-15T16:00:46.850Z,5.45
2022-10-15T16:03:48.470Z,7.28
2022-10-15T16:06:50.011Z,5.50
2022-10-15T16:09:51.660Z,5.00
2022-10-15T16:12:53.185Z,4.50
2022-10-15T16:15:54.866Z,8.25
2022-10-15T16:18:56.449Z,7.85
2022-10-15T16:21:58.044Z,7.40
2022-10-15T16:24:59.599Z,4.80
2022-10-15T16:28:01.805Z,3.50
2022-10-15T16:31:16.604Z,3.85
2022-10-15T16:34:18.253Z,3.95
2022-10-15T16:37:19.859Z,5.60
2022-10-15T16:40:21.670Z,5.47
2022-10-15T16:43:23.234Z,5.13
2022-10-15T16:46:24.911Z,4.97
2022-10-15T16:49:26.512Z,5.53
2022-10-15T16:52:28.522Z,4.85
2022-10-15T16:55:31.096Z,6.03
2022-10-15T16:58:32.751Z,5.70
2022-10-15T17:01:34.358Z,5.28
2022-10-15T17:04:35.995Z,5.47
2022-10-15T17:07:37.520Z,5.53
2022-10-15T17:10:42.859Z,6.03
2022-10-15T17:13:44.639Z,4.35
2022-10-15T17:16:52.481Z,4.45
2022-10-15T17:19:54.116Z,4.13
2022-10-15T17:22:57.685Z,4.40
2022-10-15T17:26:04.610Z,5.07
2022-10-15T17:29:16.217Z,3.65
2022-10-15T17:32:17.818Z,3.80
2022-10-15T17:35:20.236Z,3.58
2022-10-15T17:38:22.646Z,3.67
2022-10-15T17:41:26.603Z,3.58
2022-10-15T17:44:28.135Z,3.50
2022-10-15T17:47:29.884Z,3.65
2022-10-15T17:50:31.407Z,4.30
2022-10-15T17:53:33.482Z,3.63
2022-10-15T17:56:36.542Z,5.10
2022-10-15T17:59:38.078Z,3.90
2022-10-15T18:02:39.804Z,3.60
2022-10-15T18:05:41.383Z,3.33
2022-10-15T18:08:43.221Z,2.88
2022-10-15T18:11:46.411Z,2.90
2022-10-15T18:14:47.926Z,2.88
2022-10-15T18:17:49.462Z,2.55
2022-10-15T18:20:51.559Z,2.83
2022-10-15T18:23:56.062Z,3.08
2022-10-15T18:26:57.887Z,3.28
2022-10-15T18:29:59.431Z,2.80
2022-10-15T18:33:00.974Z,3.17
2022-10-15T18:36:11.701Z,3.38
2022-10-15T18:39:13.324Z,2.92
2022-10-15T18:42:14.881Z,3.03
2022-10-15T18:45:16.552Z,3.95
2022-10-15T18:48:18.072Z,3.83
2022-10-15T18:51:20.118Z,4.45
2022-10-15T18:54:22.664Z,5.93
2022-10-15T18:57:24.382Z,5.45
2022-10-15T19:00:25.925Z,6.25
2022-10-15T19:03:27.480Z,7.43
2022-10-15T19:06:32.012Z,7.88
2022-10-15T19:09:34.574Z,6.65
2022-10-15T19:12:36.179Z,7.97
2022-10-15T19:15:38.211Z,7.50
2022-10-15T19:18:40.034Z,7.55
2022-10-15T19:21:45.677Z,6.95
2022-10-15T19:24:47.200Z,5.50
2022-10-15T19:27:49.280Z,5.28
2022-10-15T19:30:58.019Z,5.00
2022-10-15T19:34:00.428Z,4.78
2022-10-15T19:37:02.149Z,4.60
2022-10-15T19:40:04.119Z,4.28
2022-10-15T19:43:06.872Z,4.35
2022-10-15T19:46:08.406Z,4.80
2022-10-15T19:49:13.165Z,4.40
2022-10-15T19:52:14.720Z,4.80
2022-10-15T19:55:16.279Z,3.55
2022-10-15T19:58:17.811Z,3.30
2022-10-15T20:01:19.564Z,3.33
2022-10-15T20:04:21.412Z,3.13
2022-10-15T20:07:23.177Z,3.10
2022-10-15T20:10:26.300Z,3.47
2022-10-15T20:13:28.138Z,2.95
2022-10-15T20:16:32.768Z,3.35
2022-10-15T20:19:34.864Z,3.53
2022-10-15T20:22:36.420Z,3.00
2022-10-15T20:25:38.111Z,3.20
2022-10-15T20:28:41.441Z,3.60
2022-10-15T20:31:43.894Z,3.50
2022-10-15T20:34:45.485Z,3.00
2022-10-15T20:37:47.462Z,3.78
2022-10-15T20:40:49.011Z,3.22
2022-10-15T20:43:54.755Z,3.53
2022-10-15T20:47:01.960Z,3.95
2022-10-15T20:50:05.726Z,4.00
2022-10-15T20:53:07.373Z,4.05
2022-10-15T20:56:08.969Z,3.55
2022-10-15T20:59:11.053Z,3.30
2022-10-15T21:02:12.590Z,4.13
2022-10-15T21:05:14.134Z,4.22
2022-10-15T21:08:15.680Z,4.50
2022-10-15T21:11:17.240Z,4.15
2022-10-15T21:14:18.803Z,4.85
2022-10-15T21:17:20.414Z,4.88
2022-10-15T21:20:22.886Z,5.40
2022-10-15T21:23:24.404Z,4.60
2022-10-15T21:26:26.380Z,4.80
2022-10-15T21:29:28.144Z,5.70
2022-10-15T21:32:29.708Z,8.10
2022-10-15T21:35:31.311Z,5.28
2022-10-15T21:38:32.807Z,4.93
2022-10-15T21:41:36.681Z,5.50
2022-10-15T21:44:38.251Z,5.50
2022-10-15T21:47:39.808Z,6.10
2022-10-15T21:50:46.999Z,5.47
2022-10-15T21:53:48.565Z,5.55
2022-10-15T21:56:50.126Z,5.65
2022-10-15T21:59:51.672Z,5.70
2022-10-15T22:02:53.462Z,5.55
2022-10-15T22:05:55.063Z,6.13
2022-10-15T22:08:56.709Z,5.50
2022-10-15T22:11:58.458Z,5.72
2022-10-15T22:14:59.983Z,5.90
2022-10-15T22:18:01.594Z,6.03
2022-10-15T22:21:17.518Z,6.05
2022-10-15T22:24:20.468Z,6.53
2022-10-15T22:27:23.336Z,6.18
2022-10-15T22:30:24.932Z,6.15
2022-10-15T22:33:26.604Z,8.85
2022-10-15T22:36:30.529Z,6.93
2022-10-15T22:39:32.076Z,5.65
2022-10-15T22:42:33.688Z,5.55
2022-10-15T22:45:35.289Z,5.35
2022-10-15T22:48:38.959Z,5.53
2022-10-15T22:51:40.716Z,5.15
2022-10-15T22:54:42.202Z,5.18
2022-10-15T22:57:44.226Z,5.63
2022-10-15T23:00:45.784Z,4.82
2022-10-15T23:03:49.941Z,5.03
2022-10-15T23:06:51.460Z,4.35
2022-10-15T23:09:52.992Z,4.78
2022-10-15T23:12:54.540Z,4.22
2022-10-15T23:16:09.266Z,4.60
2022-10-15T23:19:14.597Z,4.47
2022-10-15T23:22:16.556Z,4.57
2022-10-15T23:25:18.115Z,5.50
2022-10-15T23:28:20.386Z,5.38
2022-10-15T23:31:24.492Z,4.68
2022-10-15T23:34:26.765Z,4.60
2022-10-15T23:37:28.516Z,4.35
2022-10-15T23:40:30.487Z,4.55
2022-10-15T23:43:32.218Z,4.88
2022-10-15T23:46:33.924Z,4.13
2022-10-15T23:49:35.449Z,4.13
2022-10-15T23:52:37.088Z,5.07
2022-10-15T23:55:40.039Z,3.80
2022-10-15T23:58:42.087Z,4.03
